Time;durP1;ratioP1;P1;durP2;ratioP2;P2;SDS_P1;SDS_P2;PMS_P1;PMS_P2;Temp;Humidity;BMP_temperature;BMP_pressure;BME280_temperature;BME280_humidity;BME280_pressure;Samples;Min_cycle;Max_cycle;Signal;HPM_P1;HPM_P2
2022/06/10 00:01:08;;;;;;;2.10;2.00;;;10.40;99.90;;;;;;493945;241;28022;-72
2022/06/10 00:03:09;;;;;;;2.20;2.00;;;10.50;99.90;;;;;;494029;241;28126;-73
2022/06/10 00:05:11;;;;;;;2.30;2.20;;;10.40;99.90;;;;;;494009;241;27954;-75
2022/06/10 00:07:12;;;;;;;1.70;1.70;;;10.30;99.90;;;;;;494040;241;27940;-72
2022/06/10 00:09:13;;;;;;;2.10;2.00;;;10.30;99.90;;;;;;494016;241;28037;-73
2022/06/10 00:11:14;;;;;;;2.10;2.00;;;10.30;99.90;;;;;;494017;241;28244;-73
2022/06/10 00:13:15;;;;;;;2.30;2.10;;;10.30;99.90;;;;;;494006;241;28622;-73
2022/06/10 00:15:17;;;;;;;2.13;2.03;;;10.30;99.90;;;;;;493962;241;29195;-72
2022/06/10 00:17:18;;;;;;;2.30;2.10;;;10.20;99.90;;;;;;494021;241;28273;-72
2022/06/10 00:19:19;;;;;;;2.00;1.90;;;10.20;99.90;;;;;;494013;241;27647;-74
2022/06/10 00:21:20;;;;;;;2.20;2.10;;;10.30;99.90;;;;;;494036;241;28062;-72
2022/06/10 00:23:22;;;;;;;2.27;2.07;;;10.20;99.90;;;;;;494036;241;27810;-73
2022/06/10 00:25:23;;;;;;;2.60;1.80;;;10.10;99.90;;;;;;494025;241;27941;-72
2022/06/10 00:27:25;;;;;;;2.10;2.00;;;10.10;99.90;;;;;;494050;241;27947;-72
2022/06/10 00:29:25;;;;;;;2.00;1.90;;;10.10;99.90;;;;;;494034;241;27987;-73
2022/06/10 00:31:27;;;;;;;2.10;2.00;;;10.00;99.90;;;;;;494056;241;28044;-72
2022/06/10 00:33:29;;;;;;;1.97;1.87;;;10.00;99.90;;;;;;494033;241;27959;-72
2022/06/10 00:35:29;;;;;;;2.10;2.00;;;10.00;99.90;;;;;;493908;241;28468;-72
2022/06/10 00:37:30;;;;;;;2.00;1.90;;;10.00;99.90;;;;;;493971;241;28361;-72
2022/06/10 00:39:33;;;;;;;2.20;2.10;;;10.00;99.90;;;;;;494007;241;28534;-74
2022/06/10 00:41:33;;;;;;;1.80;1.70;;;10.00;99.90;;;;;;493961;241;28104;-72
2022/06/10 00:43:34;;;;;;;2.13;2.00;;;10.00;99.90;;;;;;494011;241;28120;-73
2022/06/10 00:45:35;;;;;;;2.47;2.27;;;10.00;99.90;;;;;;494036;241;28046;-72
2022/06/10 00:47:37;;;;;;;1.93;1.83;;;10.00;99.90;;;;;;494022;241;27599;-72
2022/06/10 00:49:38;;;;;;;1.70;1.70;;;10.00;99.90;;;;;;494007;241;28107;-75
2022/06/10 00:51:40;;;;;;;2.00;1.90;;;10.00;99.90;;;;;;494014;241;27997;-73
2022/06/10 00:53:40;;;;;;;2.30;2.20;;;10.00;99.90;;;;;;493920;241;27900;-72
2022/06/10 00:55:42;;;;;;;1.80;1.70;;;9.90;99.90;;;;;;493987;241;28068;-72
2022/06/10 00:57:43;;;;;;;1.90;1.80;;;9.90;99.90;;;;;;494021;241;27694;-72
2022/06/10 00:59:44;;;;;;;1.70;1.60;;;9.90;99.90;;;;;;494006;241;27966;-72
2022/06/10 01:01:45;;;;;;;1.73;1.63;;;9.90;99.90;;;;;;494014;241;27881;-72
2022/06/10 01:03:47;;;;;;;2.00;1.80;;;9.90;99.90;;;;;;493999;241;28434;-72
2022/06/10 01:05:48;;;;;;;1.73;1.63;;;9.90;99.90;;;;;;493991;241;28496;-72
2022/06/10 01:07:49;;;;;;;1.90;1.80;;;9.90;99.90;;;;;;494024;241;28731;-72
2022/06/10 01:09:50;;;;;;;2.10;2.00;;;9.80;99.90;;;;;;494014;241;28571;-73
2022/06/10 01:11:52;;;;;;;1.70;1.60;;;9.80;99.90;;;;;;494030;241;28355;-72
2022/06/10 01:13:53;;;;;;;4.20;1.70;;;9.70;99.90;;;;;;494026;241;28524;-72
2022/06/10 01:15:54;;;;;;;2.43;2.23;;;9.70;99.90;;;;;;493992;241;27885;-72
2022/06/10 01:17:55;;;;;;;1.80;1.70;;;9.70;99.90;;;;;;494011;241;27710;-73
2022/06/10 01:19:57;;;;;;;1.93;1.83;;;9.60;99.90;;;;;;494010;241;28032;-74
2022/06/10 01:21:59;;;;;;;1.87;1.77;;;9.50;99.90;;;;;;494039;241;27783;-72
2022/06/10 01:24:00;;;;;;;1.97;1.87;;;9.50;99.90;;;;;;494001;241;27975;-72
2022/06/10 01:26:00;;;;;;;2.57;2.37;;;9.50;99.90;;;;;;493966;241;28145;-72
2022/06/10 01:28:02;;;;;;;2.13;2.03;;;9.50;99.90;;;;;;494011;241;27971;-72
2022/06/10 01:30:03;;;;;;;3.10;1.90;;;9.60;99.90;;;;;;494013;241;27994;-75
2022/06/10 01:32:04;;;;;;;2.13;2.03;;;9.50;99.90;;;;;;493995;241;27909;-72
2022/06/10 01:34:06;;;;;;;2.17;2.07;;;9.50;99.90;;;;;;494043;241;27983;-72
2022/06/10 01:36:07;;;;;;;2.17;2.07;;;9.50;99.90;;;;;;494009;241;27931;-72
2022/06/10 01:38:08;;;;;;;3.40;2.57;;;9.40;99.90;;;;;;494028;241;28436;-73
2022/06/10 01:40:09;;;;;;;1.70;1.70;;;9.40;99.90;;;;;;494054;241;28580;-74
2022/06/10 01:42:10;;;;;;;2.20;2.10;;;9.40;99.90;;;;;;494075;241;28406;-72
2022/06/10 01:44:12;;;;;;;1.93;1.83;;;9.40;99.90;;;;;;494071;241;28097;-73
2022/06/10 01:46:13;;;;;;;2.10;2.00;;;9.30;99.90;;;;;;494055;241;28449;-72
2022/06/10 01:48:14;;;;;;;2.50;2.10;;;9.30;99.90;;;;;;494048;241;28228;-72
2022/06/10 01:50:15;;;;;;;2.10;1.90;;;9.40;99.90;;;;;;494068;241;27858;-73
2022/06/10 01:52:18;;;;;;;1.97;1.87;;;9.40;99.90;;;;;;494067;241;27954;-72
2022/06/10 01:54:18;;;;;;;2.00;1.90;;;9.40;99.90;;;;;;493909;241;27870;-73
2022/06/10 01:56:19;;;;;;;2.30;2.10;;;9.30;99.90;;;;;;493972;241;27984;-72
2022/06/10 01:58:20;;;;;;;2.60;2.40;;;9.20;99.90;;;;;;494040;241;27702;-72
2022/06/10 02:00:22;;;;;;;2.33;2.23;;;9.10;99.90;;;;;;494032;241;27993;-75
2022/06/10 02:02:23;;;;;;;4.13;2.30;;;9.20;99.90;;;;;;494006;241;28006;-72
2022/06/10 02:04:24;;;;;;;2.17;2.07;;;9.20;99.90;;;;;;494052;241;27977;-72
2022/06/10 02:06:25;;;;;;;2.07;1.97;;;9.20;99.90;;;;;;494008;241;27935;-72
2022/06/10 02:08:29;;;;;;;1.80;1.70;;;9.10;99.90;;;;;;494030;241;27967;-72
2022/06/10 02:10:31;;;;;;;1.93;1.90;;;9.20;99.90;;;;;;494020;241;28450;-72
2022/06/10 02:12:32;;;;;;;2.27;2.07;;;9.30;99.90;;;;;;494033;241;29155;-72
2022/06/10 02:14:33;;;;;;;2.27;2.10;;;9.30;99.90;;;;;;494029;241;28207;-72
2022/06/10 02:16:35;;;;;;;2.10;2.00;;;9.30;99.90;;;;;;493998;241;28018;-73
2022/06/10 02:18:36;;;;;;;2.00;1.70;;;9.20;99.90;;;;;;494015;241;27945;-72
2022/06/10 02:20:37;;;;;;;1.90;1.80;;;9.20;99.90;;;;;;494018;241;27973;-72
2022/06/10 02:22:38;;;;;;;2.03;1.90;;;9.20;99.90;;;;;;494033;241;28093;-72
2022/06/10 02:24:39;;;;;;;5.07;2.03;;;9.10;99.90;;;;;;494057;241;27838;-72
2022/06/10 02:26:41;;;;;;;2.20;2.10;;;9.10;99.90;;;;;;494016;241;27991;-73
2022/06/10 02:28:42;;;;;;;2.37;2.27;;;9.20;99.90;;;;;;494030;241;27477;-72
2022/06/10 02:30:43;;;;;;;2.03;1.83;;;9.20;99.90;;;;;;493974;241;28004;-72
2022/06/10 02:32:44;;;;;;;2.43;2.33;;;9.20;99.90;;;;;;494029;241;28067;-75
2022/06/10 02:34:46;;;;;;;2.13;2.03;;;9.20;99.90;;;;;;494044;241;27830;-72
2022/06/10 02:36:47;;;;;;;2.20;2.10;;;9.20;99.90;;;;;;494044;241;27878;-72
2022/06/10 02:38:48;;;;;;;2.10;2.00;;;9.20;99.90;;;;;;493982;241;28020;-72
2022/06/10 02:40:49;;;;;;;3.33;2.30;;;9.10;99.90;;;;;;494020;241;27945;-73
2022/06/10 02:42:51;;;;;;;2.23;2.10;;;9.10;99.90;;;;;;493951;241;28556;-73
2022/06/10 02:44:52;;;;;;;2.07;1.97;;;9.10;99.90;;;;;;494038;241;28471;-72
2022/06/10 02:46:53;;;;;;;1.93;1.80;;;9.10;99.90;;;;;;493991;241;28593;-73
2022/06/10 02:48:54;;;;;;;2.20;2.10;;;9.00;99.90;;;;;;494050;241;28401;-72
2022/06/10 02:50:56;;;;;;;4.03;2.40;;;8.90;99.90;;;;;;494027;241;28669;-73
2022/06/10 02:52:57;;;;;;;1.90;1.80;;;8.90;99.90;;;;;;494036;241;28777;-72
2022/06/10 02:54:58;;;;;;;1.90;1.80;;;8.90;99.90;;;;;;494045;241;27953;-72
2022/06/10 02:56:59;;;;;;;1.90;1.80;;;8.90;99.90;;;;;;494014;241;27850;-73
2022/06/10 03:01:20;;;;;;;2.30;2.20;;;9.00;99.90;;;;;;494019;241;27880;-72
2022/06/10 03:03:22;;;;;;;2.10;2.00;;;9.00;99.90;;;;;;494039;241;28021;-73
2022/06/10 03:05:23;;;;;;;2.37;2.20;;;9.00;99.90;;;;;;494057;237;27758;-72
2022/06/10 03:07:24;;;;;;;2.20;2.10;;;8.90;99.90;;;;;;494002;241;27509;-72
2022/06/10 03:09:25;;;;;;;2.10;2.00;;;8.90;99.90;;;;;;494045;241;27971;-72
2022/06/10 03:11:27;;;;;;;1.90;1.80;;;8.90;99.90;;;;;;494019;241;27947;-73
2022/06/10 03:13:28;;;;;;;1.90;1.80;;;8.90;99.90;;;;;;494087;241;28016;-73
2022/06/10 03:15:29;;;;;;;1.60;1.60;;;8.90;99.90;;;;;;494030;241;27637;-72
2022/06/10 03:17:30;;;;;;;2.73;2.53;;;8.90;99.90;;;;;;494013;241;28092;-73
2022/06/10 03:19:33;;;;;;;2.20;2.10;;;8.80;99.90;;;;;;494045;241;27935;-72
2022/06/10 03:21:33;;;;;;;2.40;2.20;;;8.70;99.90;;;;;;493954;241;27852;-72
2022/06/10 03:23:34;;;;;;;2.40;2.30;;;8.70;99.90;;;;;;494016;239;28569;-74
2022/06/10 03:25:36;;;;;;;2.17;2.07;;;8.70;99.90;;;;;;494014;241;28439;-72
2022/06/10 03:27:37;;;;;;;2.37;2.27;;;8.70;99.90;;;;;;494011;241;28085;-73
2022/06/10 03:29:38;;;;;;;2.10;2.00;;;8.80;99.90;;;;;;494007;241;28494;-72
2022/06/10 03:31:39;;;;;;;2.27;2.07;;;8.80;99.90;;;;;;489840;236;28545;-72
2022/06/10 03:33:40;;;;;;;1.73;1.73;;;8.80;99.90;;;;;;489648;241;27706;-74
2022/06/10 03:35:42;;;;;;;2.23;2.13;;;8.90;99.90;;;;;;493946;241;27912;-72
2022/06/10 03:37:43;;;;;;;2.00;1.90;;;8.80;99.90;;;;;;493970;241;28087;-72
2022/06/10 03:39:44;;;;;;;2.10;2.00;;;8.80;99.90;;;;;;494021;241;28009;-72
2022/06/10 03:41:45;;;;;;;1.90;1.80;;;8.80;99.90;;;;;;493998;241;27823;-72
2022/06/10 03:43:47;;;;;;;2.10;2.00;;;8.80;99.90;;;;;;494017;241;27997;-73
2022/06/10 03:45:48;;;;;;;2.10;2.00;;;8.80;99.90;;;;;;494020;241;27920;-72
2022/06/10 03:47:49;;;;;;;2.10;2.00;;;8.80;99.90;;;;;;494003;241;27958;-72
2022/06/10 03:49:50;;;;;;;1.90;1.80;;;8.70;99.90;;;;;;494014;241;28066;-72
2022/06/10 03:51:52;;;;;;;2.17;2.07;;;8.60;99.90;;;;;;494019;241;27832;-71
2022/06/10 03:53:53;;;;;;;1.77;1.70;;;8.60;99.90;;;;;;493774;241;27853;-74
2022/06/10 03:55:54;;;;;;;2.07;1.97;;;8.50;99.90;;;;;;493992;241;28066;-72
2022/06/10 03:57:55;;;;;;;2.20;2.10;;;8.50;99.90;;;;;;493959;241;27800;-72
2022/06/10 03:59:57;;;;;;;1.90;1.83;;;8.50;99.90;;;;;;494009;241;28367;-72
2022/06/10 04:01:58;;;;;;;1.97;1.87;;;8.70;99.90;;;;;;494023;241;28304;-72
2022/06/10 04:03:59;;;;;;;2.10;2.00;;;8.70;99.90;;;;;;494019;241;28157;-75
2022/06/10 04:06:00;;;;;;;2.40;2.20;;;8.80;99.90;;;;;;494037;241;28030;-72
2022/06/10 04:08:02;;;;;;;2.33;2.23;;;8.80;99.90;;;;;;493976;241;28641;-73
2022/06/10 04:10:03;;;;;;;2.40;2.30;;;8.80;99.90;;;;;;494008;241;27932;-72
2022/06/10 04:12:04;;;;;;;2.27;2.17;;;8.80;99.90;;;;;;493849;241;27610;-72
2022/06/10 04:14:05;;;;;;;2.50;2.30;;;8.80;99.90;;;;;;493993;241;27853;-74
2022/06/10 04:16:07;;;;;;;2.20;2.10;;;8.90;99.90;;;;;;493711;237;27719;-72
2022/06/10 04:18:08;;;;;;;2.53;2.40;;;9.00;99.90;;;;;;494026;241;27849;-72
2022/06/10 04:20:09;;;;;;;2.10;2.00;;;9.10;99.90;;;;;;493975;241;28234;-72
2022/06/10 04:22:10;;;;;;;2.20;2.10;;;9.10;99.90;;;;;;494010;241;27923;-72
2022/06/10 04:24:12;;;;;;;2.10;2.00;;;9.20;99.90;;;;;;494027;241;28027;-74
2022/06/10 04:26:13;;;;;;;1.90;1.80;;;9.30;99.90;;;;;;493978;241;28022;-72
2022/06/10 04:28:14;;;;;;;2.00;1.87;;;9.40;99.90;;;;;;493996;241;27982;-73
2022/06/10 04:30:15;;;;;;;2.00;1.90;;;9.40;99.90;;;;;;494016;241;27901;-72
2022/06/10 04:32:17;;;;;;;2.10;2.00;;;9.50;99.90;;;;;;494039;241;27844;-73
2022/06/10 04:34:18;;;;;;;2.13;2.03;;;9.50;99.90;;;;;;494074;241;27797;-74
2022/06/10 04:36:19;;;;;;;2.57;2.33;;;9.60;99.90;;;;;;493971;241;27918;-72
2022/06/10 04:38:20;;;;;;;2.10;2.00;;;9.60;99.90;;;;;;493942;241;28344;-72
2022/06/10 04:40:22;;;;;;;2.30;2.10;;;9.70;99.90;;;;;;493841;241;28392;-72
2022/06/10 04:42:23;;;;;;;2.10;1.90;;;9.70;99.90;;;;;;493956;241;28391;-72
2022/06/10 04:44:24;;;;;;;4.23;2.63;;;9.80;99.90;;;;;;493928;241;28412;-73
2022/06/10 04:46:25;;;;;;;2.80;2.60;;;9.90;99.90;;;;;;493966;241;28462;-73
2022/06/10 04:48:27;;;;;;;2.20;2.10;;;9.90;99.90;;;;;;493982;241;27834;-72
2022/06/10 04:50:28;;;;;;;2.70;2.50;;;9.90;99.90;;;;;;493799;241;27951;-72
2022/06/10 04:52:29;;;;;;;3.10;2.30;;;9.90;99.90;;;;;;493924;241;27794;-72
2022/06/10 04:54:30;;;;;;;2.33;2.13;;;9.90;99.90;;;;;;494062;241;27751;-74
2022/06/10 04:56:32;;;;;;;2.93;2.50;;;10.00;99.90;;;;;;494065;241;27953;-72
2022/06/10 04:58:34;;;;;;;2.40;2.30;;;10.10;99.90;;;;;;494036;241;28058;-73
2022/06/10 05:00:34;;;;;;;2.63;2.43;;;10.10;99.90;;;;;;493997;241;27832;-72
2022/06/10 05:02:35;;;;;;;2.40;2.30;;;10.20;99.90;;;;;;494016;241;28082;-72
2022/06/10 05:04:37;;;;;;;2.43;2.23;;;10.20;99.90;;;;;;494050;241;27829;-73
2022/06/10 05:06:38;;;;;;;2.17;2.07;;;10.30;99.90;;;;;;493962;241;28071;-72
2022/06/10 05:08:39;;;;;;;1.90;1.80;;;10.40;99.90;;;;;;493870;241;27872;-73
2022/06/10 05:10:40;;;;;;;2.10;1.97;;;10.50;99.90;;;;;;494010;241;28685;-72
2022/06/10 05:12:44;;;;;;;2.17;2.07;;;10.50;99.90;;;;;;493922;241;28513;-73
2022/06/10 05:14:43;;;;;;;2.23;2.13;;;10.50;99.90;;;;;;493768;241;28345;-76
2022/06/10 05:16:44;;;;;;;2.00;1.90;;;10.60;99.90;;;;;;493984;239;27919;-72
2022/06/10 05:18:46;;;;;;;2.83;2.63;;;10.60;99.90;;;;;;493998;241;27739;-73
2022/06/10 05:20:47;;;;;;;2.40;2.30;;;10.70;99.90;;;;;;493958;241;28008;-73
2022/06/10 05:22:48;;;;;;;3.00;2.13;;;10.80;99.90;;;;;;494027;241;28021;-73
2022/06/10 05:24:49;;;;;;;3.60;2.00;;;10.80;99.90;;;;;;493998;241;27968;-74
2022/06/10 05:26:50;;;;;;;2.20;2.00;;;10.90;99.90;;;;;;493967;241;27941;-72
2022/06/10 05:28:52;;;;;;;2.00;1.90;;;11.00;99.90;;;;;;493954;241;28080;-72
2022/06/10 05:30:53;;;;;;;2.10;2.00;;;11.00;99.90;;;;;;494001;241;28059;-72
2022/06/10 05:32:54;;;;;;;2.00;1.90;;;11.10;99.90;;;;;;494006;240;27691;-73
2022/06/10 05:34:55;;;;;;;1.83;1.73;;;11.20;99.90;;;;;;493964;241;28551;-73
2022/06/10 05:36:57;;;;;;;1.80;1.73;;;11.20;99.90;;;;;;493999;241;28689;-72
2022/06/10 05:38:58;;;;;;;3.13;2.13;;;11.30;99.90;;;;;;494004;241;28593;-72
2022/06/10 05:42:04;;;;;;;1.80;1.70;;;11.40;99.90;;;;;;493989;241;29094;-72
2022/06/10 05:43:00;;;;;;;2.03;1.80;;;11.50;99.90;;;;;;492226;241;28114;-72
2022/06/10 05:45:02;;;;;;;1.80;1.70;;;11.50;99.90;;;;;;493994;241;28207;-73
2022/06/10 05:47:05;;;;;;;2.00;1.90;;;11.60;99.90;;;;;;493984;241;28152;-72
2022/06/10 05:49:04;;;;;;;2.20;2.00;;;11.60;99.90;;;;;;493845;241;28281;-73
2022/06/10 05:51:05;;;;;;;2.17;2.00;;;11.60;99.90;;;;;;493958;241;28591;-74
2022/06/10 05:53:07;;;;;;;1.70;1.60;;;11.70;99.90;;;;;;493985;241;28226;-73
2022/06/10 05:55:08;;;;;;;1.80;1.70;;;11.80;99.90;;;;;;493964;241;28226;-73
2022/06/10 05:57:09;;;;;;;2.10;2.00;;;11.90;99.90;;;;;;493940;241;28186;-72
2022/06/10 05:59:10;;;;;;;2.07;1.60;;;12.00;99.90;;;;;;493987;241;28082;-73
2022/06/10 06:01:12;;;;;;;1.70;1.60;;;12.00;99.90;;;;;;493971;241;28664;-74
2022/06/10 06:03:13;;;;;;;2.10;1.60;;;12.10;99.90;;;;;;493998;241;28604;-74
2022/06/10 06:05:14;;;;;;;1.80;1.70;;;12.10;99.90;;;;;;494012;241;28590;-73
2022/06/10 06:07:16;;;;;;;2.00;1.90;;;12.20;99.90;;;;;;493959;241;28208;-72
2022/06/10 06:09:17;;;;;;;2.10;2.00;;;12.20;99.90;;;;;;493968;241;28294;-73
2022/06/10 06:11:18;;;;;;;1.90;1.80;;;12.30;99.90;;;;;;493999;241;28345;-74
2022/06/10 06:13:20;;;;;;;1.70;1.60;;;12.40;99.90;;;;;;493943;241;28348;-72
2022/06/10 06:15:22;;;;;;;2.00;1.90;;;;;;;;;;493674;241;28670;-73
2022/06/10 06:17:23;;;;;;;2.27;1.70;;;12.60;99.90;;;;;;493882;241;27651;-73
2022/06/10 06:19:24;;;;;;;3.67;2.27;;;12.70;99.90;;;;;;494017;241;28203;-74
2022/06/10 06:21:27;;;;;;;1.63;1.63;;;;;;;;;;494041;241;28488;-73
2022/06/10 06:23:28;;;;;;;2.00;1.90;;;12.80;99.90;;;;;;493996;241;27029;-73
2022/06/10 06:25:30;;;;;;;1.83;1.73;;;12.90;99.90;;;;;;494040;241;28867;-72
2022/06/10 06:27:30;;;;;;;1.80;1.70;;;12.90;99.90;;;;;;493989;241;29506;-75
2022/06/10 06:29:32;;;;;;;1.87;1.70;;;12.90;99.90;;;;;;494043;241;29815;-72
2022/06/10 06:31:33;;;;;;;2.00;1.90;;;13.00;99.90;;;;;;494022;241;28439;-74
2022/06/10 06:33:34;;;;;;;2.27;2.10;;;13.10;99.90;;;;;;494006;241;28276;-72
2022/06/10 06:35:35;;;;;;;2.00;1.90;;;13.20;99.90;;;;;;494018;241;28695;-72
2022/06/10 06:37:37;;;;;;;2.17;2.07;;;13.30;99.90;;;;;;493963;239;28211;-74
2022/06/10 06:39:38;;;;;;;2.03;1.93;;;13.40;99.90;;;;;;493999;241;28430;-72
2022/06/10 06:41:39;;;;;;;1.90;1.80;;;13.50;99.90;;;;;;494005;241;28839;-73
2022/06/10 06:43:40;;;;;;;2.03;1.93;;;13.50;99.90;;;;;;494032;241;28834;-74
2022/06/10 06:45:46;;;;;;;2.50;2.30;;;;;;;;;;494015;241;28224;-72
2022/06/10 06:47:47;;;;;;;2.17;2.07;;;13.70;99.90;;;;;;494054;241;27163;-73
2022/06/10 06:49:48;;;;;;;3.00;2.07;;;13.80;99.90;;;;;;494006;241;28733;-72
2022/06/10 06:51:49;;;;;;;2.50;2.30;;;13.80;99.90;;;;;;494024;241;28668;-73
2022/06/10 06:53:51;;;;;;;2.40;2.30;;;13.80;99.90;;;;;;494056;241;28318;-74
2022/06/10 06:55:52;;;;;;;2.43;2.23;;;13.90;99.90;;;;;;493987;241;28212;-73
2022/06/10 06:57:53;;;;;;;2.13;1.97;;;14.00;99.90;;;;;;494015;241;28294;-73
2022/06/10 07:00:04;;;;;;;2.07;1.97;;;14.10;99.90;;;;;;493998;241;28148;-73
2022/06/10 07:01:56;;;;;;;2.40;2.30;;;14.10;99.90;;;;;;493214;241;28311;-73
2022/06/10 07:03:57;;;;;;;2.00;1.90;;;14.20;99.90;;;;;;494034;241;28914;-75
2022/06/10 07:05:58;;;;;;;2.40;2.30;;;14.30;99.90;;;;;;493970;241;28295;-73
2022/06/10 07:07:59;;;;;;;8.37;2.40;;;14.50;99.90;;;;;;494020;241;28513;-73
2022/06/10 07:10:01;;;;;;;2.30;2.20;;;14.50;99.90;;;;;;494008;241;28261;-73
2022/06/10 07:12:02;;;;;;;2.30;2.10;;;14.40;99.90;;;;;;493732;241;29051;-73
2022/06/10 07:14:03;;;;;;;2.50;2.40;;;14.50;99.90;;;;;;494027;241;28783;-73
2022/06/10 07:16:04;;;;;;;6.63;2.33;;;14.60;99.90;;;;;;493943;241;29073;-73
2022/06/10 07:18:06;;;;;;;2.63;2.40;;;14.70;99.90;;;;;;494040;241;28911;-73
2022/06/10 07:20:07;;;;;;;2.23;2.13;;;14.80;99.90;;;;;;494003;238;28951;-73
2022/06/10 07:22:08;;;;;;;2.60;2.40;;;14.80;99.90;;;;;;494026;239;28787;-72
2022/06/10 07:24:09;;;;;;;2.53;2.20;;;14.80;99.90;;;;;;494022;241;28834;-73
2022/06/10 07:26:11;;;;;;;2.50;2.30;;;14.90;99.90;;;;;;494011;241;28922;-73
2022/06/10 07:28:12;;;;;;;2.57;2.37;;;14.80;99.90;;;;;;494008;241;28536;-72
2022/06/10 07:30:13;;;;;;;2.23;2.03;;;14.70;99.90;;;;;;494039;241;29206;-75
2022/06/10 07:32:14;;;;;;;2.37;2.17;;;14.80;99.90;;;;;;494012;241;28551;-72
2022/06/10 07:34:16;;;;;;;2.50;2.10;;;14.90;99.90;;;;;;494053;237;28828;-73
2022/06/10 07:36:17;;;;;;;2.33;2.20;;;14.90;99.90;;;;;;494036;241;28661;-72
2022/06/10 07:38:18;;;;;;;2.30;2.20;;;15.00;99.90;;;;;;494006;241;29000;-72
2022/06/10 07:42:39;;;;;;;3.27;2.37;;;15.30;99.90;;;;;;494021;241;28811;-74
2022/06/10 07:44:40;;;;;;;2.40;2.30;;;15.30;99.90;;;;;;494014;241;28890;-73
2022/06/10 07:46:42;;;;;;;2.60;2.40;;;15.50;99.90;;;;;;494045;241;28441;-73
2022/06/10 07:48:43;;;;;;;3.10;2.50;;;15.50;99.90;;;;;;493977;241;28496;-72
2022/06/10 07:50:44;;;;;;;3.63;2.63;;;15.50;99.90;;;;;;494039;241;28932;-74
2022/06/10 07:52:45;;;;;;;3.07;2.40;;;15.60;99.90;;;;;;494046;241;28805;-72
2022/06/10 07:54:47;;;;;;;2.70;2.50;;;15.60;99.90;;;;;;493993;241;28805;-73
2022/06/10 07:56:48;;;;;;;2.13;2.03;;;15.70;99.90;;;;;;494050;241;28839;-74
2022/06/10 07:58:50;;;;;;;2.30;2.20;;;15.60;99.90;;;;;;494035;241;28574;-72
2022/06/10 08:00:51;;;;;;;2.70;2.47;;;15.70;99.90;;;;;;494023;241;29348;-72
2022/06/10 08:02:52;;;;;;;2.40;2.30;;;15.70;99.90;;;;;;494040;241;30020;-73
2022/06/10 08:04:53;;;;;;;2.50;2.40;;;15.70;99.90;;;;;;494011;241;29253;-73
2022/06/10 08:06:54;;;;;;;2.10;1.90;;;15.70;99.90;;;;;;494013;241;28867;-72
2022/06/10 08:08:55;;;;;;;2.80;2.60;;;15.80;99.90;;;;;;493994;241;28787;-73
2022/06/10 08:10:57;;;;;;;2.07;1.97;;;15.90;99.90;;;;;;493984;241;28824;-73
2022/06/10 08:12:58;;;;;;;2.17;2.00;;;16.00;99.90;;;;;;494016;241;28855;-73
2022/06/10 08:14:59;;;;;;;2.40;2.20;;;16.00;99.90;;;;;;494016;241;28826;-73
2022/06/10 08:17:04;;;;;;;2.00;1.90;;;16.00;99.90;;;;;;494007;241;28921;-74
2022/06/10 08:19:02;;;;;;;1.97;1.87;;;16.00;99.90;;;;;;493770;241;28866;-73
2022/06/10 08:23:23;;;;;;;2.23;2.13;;;16.20;99.90;;;;;;493989;241;28909;-73
2022/06/10 08:25:24;;;;;;;4.77;2.33;;;16.20;99.90;;;;;;493983;241;28794;-72
2022/06/10 08:27:25;;;;;;;2.30;2.10;;;16.20;99.90;;;;;;493977;241;28829;-73
2022/06/10 08:29:26;;;;;;;2.17;1.93;;;16.40;99.90;;;;;;494034;241;29195;-75
2022/06/10 08:31:28;;;;;;;2.30;2.20;;;16.50;99.90;;;;;;493994;241;28921;-73
2022/06/10 08:33:29;;;;;;;2.20;2.10;;;16.40;99.90;;;;;;494017;241;28826;-73
2022/06/10 08:35:30;;;;;;;2.70;2.23;;;16.40;99.90;;;;;;493995;241;28878;-72
2022/06/10 08:37:31;;;;;;;3.47;2.30;;;16.50;99.90;;;;;;493929;241;29320;-73
2022/06/10 08:39:33;;;;;;;4.27;2.30;;;16.60;99.90;;;;;;494031;241;29373;-74
2022/06/10 08:41:34;;;;;;;2.77;2.43;;;16.50;99.90;;;;;;493998;241;29338;-73
2022/06/10 08:43:35;;;;;;;2.70;2.50;;;16.50;99.90;;;;;;493989;241;29308;-73
2022/06/10 08:45:36;;;;;;;4.00;2.50;;;16.70;99.90;;;;;;494025;241;28927;-73
2022/06/10 08:47:38;;;;;;;3.00;2.70;;;16.60;99.90;;;;;;493978;241;28825;-73
2022/06/10 08:49:39;;;;;;;2.40;2.20;;;16.70;99.90;;;;;;494034;241;28840;-75
2022/06/10 08:51:40;;;;;;;2.40;2.20;;;16.80;99.90;;;;;;493994;241;28797;-73
2022/06/10 08:53:41;;;;;;;2.23;2.03;;;16.60;99.90;;;;;;493988;241;28930;-73
2022/06/10 08:55:43;;;;;;;2.07;1.97;;;16.70;99.90;;;;;;493984;241;28860;-72
2022/06/10 08:57:44;;;;;;;2.20;2.10;;;16.80;99.90;;;;;;493985;241;28804;-74
2022/06/10 08:59:45;;;;;;;1.97;1.87;;;16.90;99.90;;;;;;494003;241;28963;-73
2022/06/10 09:01:46;;;;;;;2.40;2.20;;;16.90;99.90;;;;;;494015;241;28926;-73
2022/06/10 09:03:48;;;;;;;2.90;2.23;;;17.00;99.90;;;;;;493977;241;29270;-73
2022/06/10 09:05:49;;;;;;;2.10;2.00;;;17.10;99.90;;;;;;493986;241;30162;-72
2022/06/10 09:07:50;;;;;;;2.43;2.20;;;17.30;99.90;;;;;;494001;241;29263;-72
2022/06/10 09:09:51;;;;;;;3.40;2.33;;;17.10;99.90;;;;;;494004;241;28910;-74
2022/06/10 09:11:53;;;;;;;2.37;1.90;;;17.20;99.90;;;;;;493998;241;28914;-72
2022/06/10 09:13:54;;;;;;;2.07;1.87;;;17.20;99.90;;;;;;493989;241;28930;-73
2022/06/10 09:15:55;;;;;;;2.10;2.00;;;17.20;99.90;;;;;;494011;241;28900;-72
2022/06/10 09:17:56;;;;;;;2.23;2.03;;;17.30;99.90;;;;;;493954;241;28803;-73
2022/06/10 09:19:58;;;;;;;2.23;1.90;;;17.50;99.90;;;;;;493975;241;28909;-74
2022/06/10 09:21:59;;;;;;;2.30;2.13;;;17.60;99.90;;;;;;493962;241;28931;-73
2022/06/10 09:24:00;;;;;;;3.27;2.37;;;17.70;99.90;;;;;;494011;241;28860;-73
2022/06/10 09:26:07;;;;;;;2.50;2.30;;;17.80;99.90;;;;;;493969;241;28850;-74
2022/06/10 09:28:03;;;;;;;2.72;2.42;;;17.70;99.90;;;;;;492535;241;36598;-72
2022/06/10 09:30:04;;;;;;;2.20;2.10;;;17.60;99.90;;;;;;493975;241;27984;-74
2022/06/10 09:32:05;;;;;;;2.10;2.00;;;17.60;99.90;;;;;;494019;241;29361;-73
2022/06/10 09:34:06;;;;;;;3.10;2.50;;;17.50;99.90;;;;;;493997;241;28914;-73
2022/06/10 09:36:08;;;;;;;2.20;2.00;;;17.50;99.90;;;;;;493985;241;28835;-74
2022/06/10 09:38:09;;;;;;;2.33;2.10;;;17.50;99.90;;;;;;493991;241;28834;-73
2022/06/10 09:42:20;;;;;;;5.83;2.00;;;17.50;99.90;;;;;;484089;245;28814;-73
2022/06/10 09:44:22;;;;;;;1.93;1.83;;;17.50;99.90;;;;;;493912;241;28844;-73
2022/06/10 09:46:23;;;;;;;2.07;1.97;;;17.60;99.90;;;;;;493962;241;28918;-73
2022/06/10 09:48:24;;;;;;;2.23;2.13;;;17.60;99.90;;;;;;494013;241;28838;-75
2022/06/10 09:50:25;;;;;;;1.87;1.77;;;17.40;99.90;;;;;;494025;241;28790;-73
2022/06/10 09:52:27;;;;;;;2.50;2.00;;;17.50;99.90;;;;;;493983;241;28919;-73
2022/06/10 09:54:28;;;;;;;2.43;2.23;;;17.70;99.90;;;;;;494047;241;28810;-72
2022/06/10 09:56:29;;;;;;;2.23;1.90;;;17.70;99.90;;;;;;494051;241;29322;-73
2022/06/10 09:58:30;;;;;;;2.17;2.00;;;17.90;99.90;;;;;;494032;241;29337;-73
2022/06/10 10:00:32;;;;;;;2.53;1.97;;;18.00;99.90;;;;;;494072;241;29358;-73
2022/06/10 10:02:33;;;;;;;2.10;2.00;;;18.20;99.90;;;;;;494031;241;29346;-73
2022/06/10 10:04:34;;;;;;;2.47;2.27;;;18.30;99.90;;;;;;494044;241;28866;-72
2022/06/10 10:06:35;;;;;;;2.20;2.00;;;18.60;99.90;;;;;;494030;241;28867;-73
2022/06/10 10:08:37;;;;;;;2.77;2.07;;;18.70;99.90;;;;;;494047;241;28834;-74
2022/06/10 10:10:38;;;;;;;2.00;1.90;;;18.70;99.90;;;;;;494072;241;28894;-72
2022/06/10 10:12:39;;;;;;;2.33;1.77;;;18.60;99.90;;;;;;494060;241;28835;-73
2022/06/10 10:14:41;;;;;;;2.83;1.93;;;18.50;99.90;;;;;;494037;241;28845;-75
2022/06/10 10:16:42;;;;;;;1.90;1.80;;;18.50;99.90;;;;;;494015;241;28828;-72
2022/06/10 10:18:43;;;;;;;2.00;1.90;;;18.70;99.90;;;;;;494016;241;28853;-73
2022/06/10 10:20:44;;;;;;;2.70;2.03;;;18.90;99.90;;;;;;494020;239;29372;-72
2022/06/10 10:22:45;;;;;;;2.17;2.00;;;19.20;99.90;;;;;;494016;241;29432;-73
2022/06/10 10:24:47;;;;;;;2.03;1.90;;;19.20;99.90;;;;;;494020;241;29321;-75
2022/06/10 10:26:50;;;;;;;2.23;1.80;;;19.30;99.90;;;;;;494027;241;29286;-73
2022/06/10 10:28:49;;;;;;;2.17;1.90;;;19.30;99.90;;;;;;493835;241;28834;-74
2022/06/10 10:30:50;;;;;;;1.60;1.50;;;19.10;99.90;;;;;;494037;241;28913;-73
2022/06/10 10:32:52;;;;;;;2.20;2.00;;;19.20;99.90;;;;;;494039;241;28867;-73
2022/06/10 10:34:53;;;;;;;4.73;2.10;;;19.10;99.90;;;;;;493970;241;28862;-75
2022/06/10 10:36:54;;;;;;;1.87;1.77;;;19.00;99.90;;;;;;494017;241;28813;-72
2022/06/10 10:38:55;;;;;;;1.77;1.67;;;18.80;99.90;;;;;;493988;241;28850;-73
2022/06/10 10:40:57;;;;;;;3.50;1.80;;;18.70;99.90;;;;;;493980;241;28806;-73
2022/06/10 10:42:58;;;;;;;2.33;1.90;;;18.80;99.90;;;;;;493999;241;28829;-73